Terminal Aerodrome Forecast
Issued by NWS Charleston, WV

Current Version | Previous Version | Text Only | Print | Product List | Glossary Off
Versions: 1 2 3 4 5 6 7 8 9 10 11 12 13 14 15 16 17 18 19 20 21 22 23 24 25 26 27 28 29

000
FTUS41 KRLX 281730
TAFEKN
TAF
KEKN 281730Z 2818/2918 VRB04KT P6SM SKC
      TEMPO 2818/2821 20008G18KT
     FM282100 18005KT P6SM BKN090
     FM290200 VRB03KT P6SM OVC040
     FM291400 VRB03KT 6SM -SHRA OVC070
     FM291700 14007KT P6SM SHRA OVC080=

USA.gov is the U.S. government's official web portal to all federal, state and local government web resources and services.